This is the latest recevied weather packets stored in our database for station/object ED5YAW-10. If no packets are shown the sender has not sent any weather packets the latest 10 day(s).
| Time | Temp. | Humidity | Pressure | Rain* | Wind** | Luminosity | Snow |
|---|---|---|---|---|---|---|---|
| 1778094740 | 13.33° C | 95% | 871 hPa | - | - | - | - |
| 1778094140 | 13.89° C | 89% | 871 hPa | - | - | - | - |
| 1778094136 | 13.89° C | 89% | 871 hPa | - | - | - | - |
| 1778093536 | 13.89° C | 85% | 871 hPa | - | - | - | - |
| 1778093532 | 13.89° C | 85% | 871 hPa | - | - | - | - |
| 1778092931 | 14.44° C | 78% | 870 hPa | - | - | - | - |
| 1778092927 | 14.44° C | 78% | 870 hPa | - | - | - | - |
| 1778092323 | 15° C | 73% | 871 hPa | - | - | - | - |
| 1778091723 | 15.56° C | 68% | 871 hPa | - | - | - | - |
| 1778091719 | 15.56° C | 68% | 871 hPa | - | - | - | - |
| 1778091118 | 16.11° C | 60% | 870 hPa | - | - | - | - |
| 1778091114 | 16.11° C | 60% | 870 hPa | - | - | - | - |
| 1778090514 | 17.22° C | 54% | 871 hPa | - | - | - | - |
| 1778090510 | 17.22° C | 54% | 871 hPa | - | - | - | - |
| 1778089910 | 17.78° C | 43% | 870 hPa | - | - | - | - |
| 1778089906 | 17.78° C | 43% | 870 hPa | - | - | - | - |
| 1778089306 | 18.33° C | 35% | 871 hPa | - | - | - | - |
| 1778089301 | 18.33° C | 35% | 871 hPa | - | - | - | - |
| 1778088701 | 18.33° C | 34% | 871 hPa | - | - | - | - |
| 1778088697 | 18.33° C | 34% | 871 hPa | - | - | - | - |
| 1778088104 | 18.33° C | 34% | 871 hPa | - | - | - | - |
| 1778088093 | 18.33° C | 34% | 871 hPa | - | - | - | - |
| 1778087493 | 18.89° C | 34% | 871 hPa | - | - | - | - |
| 1778087488 | 18.89° C | 34% | 871 hPa | - | - | - | - |
| 1778086888 | 18.89° C | 33% | 871 hPa | - | - | - | - |
* Rain since midnight (hover to see other rain measurements)
** Current wind speed in m/s (hover to see current wind gust speed)